sensor_id;sensor_type;location;lat;lon;timestamp;P1;durP1;ratioP1;P2;durP2;ratioP2
2055;SDS011;1033;52.560;13.374;2023-08-07T00:01:29;5.47;;;3.73;;
2055;SDS011;1033;52.560;13.374;2023-08-07T00:03:58;3.83;;;3.10;;
2055;SDS011;1033;52.560;13.374;2023-08-07T00:09:47;9.23;;;3.70;;
2055;SDS011;1033;52.560;13.374;2023-08-07T00:20:24;8.20;;;6.10;;
2055;SDS011;1033;52.560;13.374;2023-08-07T00:22:53;8.07;;;5.47;;
2055;SDS011;1033;52.560;13.374;2023-08-07T00:25:22;10.10;;;5.17;;
2055;SDS011;1033;52.560;13.374;2023-08-07T00:27:51;6.33;;;4.87;;
2055;SDS011;1033;52.560;13.374;2023-08-07T00:30:20;5.80;;;4.47;;
2055;SDS011;1033;52.560;13.374;2023-08-07T00:32:49;5.07;;;4.30;;
2055;SDS011;1033;52.560;13.374;2023-08-07T00:35:19;6.80;;;5.03;;
2055;SDS011;1033;52.560;13.374;2023-08-07T00:37:50;5.70;;;4.20;;
2055;SDS011;1033;52.560;13.374;2023-08-07T00:40:20;6.10;;;4.43;;
2055;SDS011;1033;52.560;13.374;2023-08-07T00:42:49;6.93;;;5.13;;
2055;SDS011;1033;52.560;13.374;2023-08-07T00:45:18;6.27;;;5.00;;
2055;SDS011;1033;52.560;13.374;2023-08-07T00:47:49;5.20;;;4.30;;
2055;SDS011;1033;52.560;13.374;2023-08-07T00:50:18;5.23;;;4.33;;
2055;SDS011;1033;52.560;13.374;2023-08-07T00:52:52;5.00;;;4.20;;
2055;SDS011;1033;52.560;13.374;2023-08-07T00:55:22;6.20;;;4.20;;
2055;SDS011;1033;52.560;13.374;2023-08-07T00:57:51;7.80;;;4.50;;
2055;SDS011;1033;52.560;13.374;2023-08-07T01:00:21;6.13;;;5.03;;
2055;SDS011;1033;52.560;13.374;2023-08-07T01:02:51;8.60;;;4.47;;
2055;SDS011;1033;52.560;13.374;2023-08-07T01:05:22;5.27;;;4.67;;
2055;SDS011;1033;52.560;13.374;2023-08-07T01:07:54;5.13;;;4.07;;
2055;SDS011;1033;52.560;13.374;2023-08-07T01:10:25;5.43;;;4.70;;
2055;SDS011;1033;52.560;13.374;2023-08-07T01:13:05;6.90;;;4.10;;
2055;SDS011;1033;52.560;13.374;2023-08-07T01:15:52;6.27;;;4.80;;
2055;SDS011;1033;52.560;13.374;2023-08-07T01:18:25;5.37;;;4.83;;
2055;SDS011;1033;52.560;13.374;2023-08-07T01:20:55;9.43;;;5.40;;
2055;SDS011;1033;52.560;13.374;2023-08-07T01:23:27;5.37;;;4.83;;
2055;SDS011;1033;52.560;13.374;2023-08-07T01:25:56;9.90;;;4.43;;
2055;SDS011;1033;52.560;13.374;2023-08-07T01:28:26;12.30;;;5.03;;
2055;SDS011;1033;52.560;13.374;2023-08-07T01:31:08;4.80;;;3.57;;
2055;SDS011;1033;52.560;13.374;2023-08-07T01:33:44;4.33;;;3.93;;
2055;SDS011;1033;52.560;13.374;2023-08-07T01:36:19;5.50;;;4.87;;
2055;SDS011;1033;52.560;13.374;2023-08-07T01:38:50;6.33;;;4.13;;
2055;SDS011;1033;52.560;13.374;2023-08-07T01:41:20;5.50;;;4.50;;
2055;SDS011;1033;52.560;13.374;2023-08-07T01:43:50;5.50;;;4.43;;
2055;SDS011;1033;52.560;13.374;2023-08-07T01:46:19;6.73;;;4.17;;
2055;SDS011;1033;52.560;13.374;2023-08-07T01:48:48;7.23;;;3.87;;
2055;SDS011;1033;52.560;13.374;2023-08-07T01:51:19;7.50;;;4.50;;
2055;SDS011;1033;52.560;13.374;2023-08-07T01:53:48;5.77;;;5.20;;
2055;SDS011;1033;52.560;13.374;2023-08-07T01:56:19;7.00;;;4.63;;
2055;SDS011;1033;52.560;13.374;2023-08-07T01:58:48;8.50;;;5.23;;
2055;SDS011;1033;52.560;13.374;2023-08-07T02:01:18;9.20;;;4.33;;
2055;SDS011;1033;52.560;13.374;2023-08-07T02:03:47;7.77;;;5.93;;
2055;SDS011;1033;52.560;13.374;2023-08-07T02:06:17;12.20;;;5.00;;
2055;SDS011;1033;52.560;13.374;2023-08-07T02:08:47;11.73;;;5.27;;
2055;SDS011;1033;52.560;13.374;2023-08-07T02:11:17;7.27;;;5.83;;
2055;SDS011;1033;52.560;13.374;2023-08-07T02:13:46;6.00;;;4.93;;
2055;SDS011;1033;52.560;13.374;2023-08-07T02:16:15;10.40;;;5.23;;
2055;SDS011;1033;52.560;13.374;2023-08-07T02:18:45;6.53;;;5.80;;
2055;SDS011;1033;52.560;13.374;2023-08-07T02:21:15;7.90;;;5.33;;
2055;SDS011;1033;52.560;13.374;2023-08-07T02:23:44;6.23;;;4.80;;
2055;SDS011;1033;52.560;13.374;2023-08-07T02:26:13;9.53;;;5.97;;
2055;SDS011;1033;52.560;13.374;2023-08-07T02:28:44;14.33;;;5.00;;
2055;SDS011;1033;52.560;13.374;2023-08-07T02:31:13;6.20;;;5.17;;
2055;SDS011;1033;52.560;13.374;2023-08-07T02:33:42;8.20;;;5.20;;
2055;SDS011;1033;52.560;13.374;2023-08-07T02:36:11;6.30;;;5.60;;
2055;SDS011;1033;52.560;13.374;2023-08-07T02:38:40;5.80;;;5.10;;
2055;SDS011;1033;52.560;13.374;2023-08-07T02:41:09;5.93;;;4.80;;
2055;SDS011;1033;52.560;13.374;2023-08-07T02:43:38;5.80;;;5.30;;
2055;SDS011;1033;52.560;13.374;2023-08-07T02:46:09;7.13;;;5.93;;
2055;SDS011;1033;52.560;13.374;2023-08-07T02:48:38;10.57;;;6.90;;
2055;SDS011;1033;52.560;13.374;2023-08-07T02:51:07;12.33;;;7.10;;
2055;SDS011;1033;52.560;13.374;2023-08-07T02:53:37;11.70;;;6.70;;
2055;SDS011;1033;52.560;13.374;2023-08-07T02:56:06;9.03;;;6.00;;
2055;SDS011;1033;52.560;13.374;2023-08-07T02:58:35;8.77;;;7.00;;
2055;SDS011;1033;52.560;13.374;2023-08-07T03:01:04;9.03;;;5.77;;
2055;SDS011;1033;52.560;13.374;2023-08-07T03:03:35;6.47;;;5.87;;
2055;SDS011;1033;52.560;13.374;2023-08-07T03:06:04;14.90;;;7.57;;
2055;SDS011;1033;52.560;13.374;2023-08-07T03:08:33;9.43;;;6.37;;
2055;SDS011;1033;52.560;13.374;2023-08-07T03:11:03;14.70;;;7.97;;
2055;SDS011;1033;52.560;13.374;2023-08-07T03:13:32;9.63;;;8.63;;
2055;SDS011;1033;52.560;13.374;2023-08-07T03:16:01;8.67;;;7.70;;
2055;SDS011;1033;52.560;13.374;2023-08-07T03:18:34;9.03;;;6.77;;
2055;SDS011;1033;52.560;13.374;2023-08-07T03:21:03;6.03;;;5.50;;
2055;SDS011;1033;52.560;13.374;2023-08-07T03:23:32;8.53;;;7.67;;
2055;SDS011;1033;52.560;13.374;2023-08-07T03:26:05;8.80;;;6.33;;
2055;SDS011;1033;52.560;13.374;2023-08-07T03:28:38;7.80;;;6.37;;
2055;SDS011;1033;52.560;13.374;2023-08-07T03:31:08;7.73;;;6.63;;
2055;SDS011;1033;52.560;13.374;2023-08-07T03:33:38;14.60;;;6.30;;
2055;SDS011;1033;52.560;13.374;2023-08-07T03:36:07;7.03;;;6.20;;
2055;SDS011;1033;52.560;13.374;2023-08-07T03:38:37;9.47;;;6.77;;
2055;SDS011;1033;52.560;13.374;2023-08-07T03:41:07;8.43;;;6.20;;
2055;SDS011;1033;52.560;13.374;2023-08-07T03:43:39;10.63;;;7.60;;
2055;SDS011;1033;52.560;13.374;2023-08-07T03:46:09;9.10;;;7.03;;
2055;SDS011;1033;52.560;13.374;2023-08-07T03:48:40;14.53;;;7.80;;
2055;SDS011;1033;52.560;13.374;2023-08-07T03:51:09;9.23;;;7.93;;
2055;SDS011;1033;52.560;13.374;2023-08-07T03:53:43;9.40;;;7.27;;
2055;SDS011;1033;52.560;13.374;2023-08-07T03:56:13;11.27;;;8.30;;
2055;SDS011;1033;52.560;13.374;2023-08-07T03:58:42;11.93;;;6.90;;
2055;SDS011;1033;52.560;13.374;2023-08-07T04:01:12;9.27;;;7.47;;
2055;SDS011;1033;52.560;13.374;2023-08-07T04:03:43;8.33;;;7.53;;
2055;SDS011;1033;52.560;13.374;2023-08-07T04:06:14;10.63;;;7.57;;
2055;SDS011;1033;52.560;13.374;2023-08-07T04:08:44;7.00;;;6.33;;
2055;SDS011;1033;52.560;13.374;2023-08-07T04:11:13;10.30;;;7.10;;
2055;SDS011;1033;52.560;13.374;2023-08-07T04:13:43;8.33;;;6.63;;
2055;SDS011;1033;52.560;13.374;2023-08-07T04:16:13;7.93;;;6.73;;
2055;SDS011;1033;52.560;13.374;2023-08-07T04:18:45;7.90;;;6.40;;
2055;SDS011;1033;52.560;13.374;2023-08-07T04:21:14;7.97;;;5.93;;
2055;SDS011;1033;52.560;13.374;2023-08-07T04:23:43;11.80;;;6.57;;
2055;SDS011;1033;52.560;13.374;2023-08-07T04:26:12;7.70;;;6.00;;
2055;SDS011;1033;52.560;13.374;2023-08-07T04:28:42;7.63;;;6.73;;
2055;SDS011;1033;52.560;13.374;2023-08-07T04:31:11;9.00;;;6.40;;
2055;SDS011;1033;52.560;13.374;2023-08-07T04:33:40;8.93;;;6.53;;
2055;SDS011;1033;52.560;13.374;2023-08-07T04:36:11;6.67;;;6.07;;
2055;SDS011;1033;52.560;13.374;2023-08-07T04:38:40;16.73;;;5.33;;
2055;SDS011;1033;52.560;13.374;2023-08-07T04:41:09;7.70;;;6.93;;
2055;SDS011;1033;52.560;13.374;2023-08-07T04:43:38;10.20;;;7.47;;
2055;SDS011;1033;52.560;13.374;2023-08-07T04:46:13;13.47;;;6.03;;
2055;SDS011;1033;52.560;13.374;2023-08-07T04:48:42;8.27;;;6.97;;
2055;SDS011;1033;52.560;13.374;2023-08-07T04:51:13;9.20;;;6.43;;
2055;SDS011;1033;52.560;13.374;2023-08-07T04:53:42;8.13;;;6.67;;
2055;SDS011;1033;52.560;13.374;2023-08-07T04:56:11;10.87;;;6.47;;
2055;SDS011;1033;52.560;13.374;2023-08-07T04:58:40;7.27;;;5.80;;
2055;SDS011;1033;52.560;13.374;2023-08-07T05:01:10;7.00;;;5.63;;
2055;SDS011;1033;52.560;13.374;2023-08-07T05:03:39;10.53;;;5.10;;
2055;SDS011;1033;52.560;13.374;2023-08-07T05:06:08;8.67;;;7.20;;
2055;SDS011;1033;52.560;13.374;2023-08-07T05:08:39;7.10;;;5.00;;
2055;SDS011;1033;52.560;13.374;2023-08-07T05:11:08;7.10;;;4.50;;
2055;SDS011;1033;52.560;13.374;2023-08-07T05:13:37;8.53;;;5.20;;
2055;SDS011;1033;52.560;13.374;2023-08-07T05:16:07;10.20;;;4.80;;
2055;SDS011;1033;52.560;13.374;2023-08-07T05:18:36;5.20;;;4.70;;
2055;SDS011;1033;52.560;13.374;2023-08-07T05:21:05;7.27;;;5.03;;
2055;SDS011;1033;52.560;13.374;2023-08-07T05:23:35;4.93;;;4.43;;
2055;SDS011;1033;52.560;13.374;2023-08-07T05:26:09;4.27;;;3.90;;
2055;SDS011;1033;52.560;13.374;2023-08-07T05:28:38;6.63;;;3.70;;
2055;SDS011;1033;52.560;13.374;2023-08-07T05:31:08;4.37;;;3.90;;
2055;SDS011;1033;52.560;13.374;2023-08-07T05:33:37;8.07;;;5.10;;
2055;SDS011;1033;52.560;13.374;2023-08-07T05:36:06;8.93;;;5.40;;
2055;SDS011;1033;52.560;13.374;2023-08-07T05:38:35;7.63;;;4.90;;
2055;SDS011;1033;52.560;13.374;2023-08-07T05:41:06;5.83;;;4.60;;
2055;SDS011;1033;52.560;13.374;2023-08-07T05:43:36;5.43;;;4.03;;
2055;SDS011;1033;52.560;13.374;2023-08-07T05:46:05;5.03;;;4.53;;
2055;SDS011;1033;52.560;13.374;2023-08-07T05:48:34;6.33;;;4.03;;
2055;SDS011;1033;52.560;13.374;2023-08-07T05:51:03;5.97;;;4.00;;
2055;SDS011;1033;52.560;13.374;2023-08-07T05:53:34;7.30;;;4.10;;
2055;SDS011;1033;52.560;13.374;2023-08-07T05:56:05;4.17;;;3.53;;
2055;SDS011;1033;52.560;13.374;2023-08-07T05:58:34;5.43;;;4.63;;
2055;SDS011;1033;52.560;13.374;2023-08-07T06:01:03;5.80;;;5.20;;
2055;SDS011;1033;52.560;13.374;2023-08-07T06:03:33;6.00;;;3.97;;
2055;SDS011;1033;52.560;13.374;2023-08-07T06:06:02;9.57;;;4.83;;
2055;SDS011;1033;52.560;13.374;2023-08-07T06:08:31;4.67;;;4.17;;
2055;SDS011;1033;52.560;13.374;2023-08-07T06:11:00;5.03;;;4.53;;
2055;SDS011;1033;52.560;13.374;2023-08-07T06:13:33;5.20;;;3.70;;
2055;SDS011;1033;52.560;13.374;2023-08-07T06:16:03;5.40;;;4.17;;
2055;SDS011;1033;52.560;13.374;2023-08-07T06:18:33;4.97;;;4.27;;
2055;SDS011;1033;52.560;13.374;2023-08-07T06:21:02;4.50;;;3.70;;
2055;SDS011;1033;52.560;13.374;2023-08-07T06:23:33;6.33;;;5.60;;
2055;SDS011;1033;52.560;13.374;2023-08-07T06:26:02;4.40;;;4.00;;
2055;SDS011;1033;52.560;13.374;2023-08-07T06:28:33;5.03;;;3.47;;
2055;SDS011;1033;52.560;13.374;2023-08-07T06:31:04;4.17;;;3.40;;
2055;SDS011;1033;52.560;13.374;2023-08-07T06:33:34;6.80;;;3.83;;
2055;SDS011;1033;52.560;13.374;2023-08-07T06:36:04;3.50;;;3.20;;
2055;SDS011;1033;52.560;13.374;2023-08-07T06:38:35;6.20;;;3.70;;
2055;SDS011;1033;52.560;13.374;2023-08-07T06:44:35;4.37;;;3.87;;
2055;SDS011;1033;52.560;13.374;2023-08-07T06:47:04;4.70;;;3.97;;
2055;SDS011;1033;52.560;13.374;2023-08-07T06:49:36;9.43;;;3.80;;
2055;SDS011;1033;52.560;13.374;2023-08-07T06:52:05;3.27;;;2.70;;
2055;SDS011;1033;52.560;13.374;2023-08-07T06:54:35;8.07;;;3.00;;
2055;SDS011;1033;52.560;13.374;2023-08-07T06:57:04;3.80;;;3.20;;
2055;SDS011;1033;52.560;13.374;2023-08-07T06:59:34;4.17;;;2.97;;
2055;SDS011;1033;52.560;13.374;2023-08-07T07:02:05;8.03;;;2.70;;
2055;SDS011;1033;52.560;13.374;2023-08-07T07:04:34;6.33;;;3.10;;
2055;SDS011;1033;52.560;13.374;2023-08-07T07:07:04;8.70;;;3.27;;
2055;SDS011;1033;52.560;13.374;2023-08-07T07:09:33;3.20;;;2.60;;
2055;SDS011;1033;52.560;13.374;2023-08-07T07:12:02;6.03;;;3.30;;
2055;SDS011;1033;52.560;13.374;2023-08-07T07:14:32;5.70;;;3.00;;
2055;SDS011;1033;52.560;13.374;2023-08-07T07:17:02;4.73;;;2.53;;
2055;SDS011;1033;52.560;13.374;2023-08-07T07:19:32;4.33;;;3.17;;
2055;SDS011;1033;52.560;13.374;2023-08-07T07:22:01;3.80;;;2.77;;
2055;SDS011;1033;52.560;13.374;2023-08-07T07:28:41;8.03;;;3.27;;
2055;SDS011;1033;52.560;13.374;2023-08-07T07:32:08;3.47;;;2.50;;
2055;SDS011;1033;52.560;13.374;2023-08-07T07:34:38;9.23;;;2.70;;
2055;SDS011;1033;52.560;13.374;2023-08-07T07:37:07;5.60;;;3.13;;
2055;SDS011;1033;52.560;13.374;2023-08-07T07:39:36;3.40;;;2.80;;
2055;SDS011;1033;52.560;13.374;2023-08-07T07:42:06;4.13;;;2.33;;
2055;SDS011;1033;52.560;13.374;2023-08-07T07:44:36;8.07;;;2.50;;
2055;SDS011;1033;52.560;13.374;2023-08-07T07:47:08;5.83;;;2.87;;
2055;SDS011;1033;52.560;13.374;2023-08-07T07:49:44;3.80;;;2.17;;
2055;SDS011;1033;52.560;13.374;2023-08-07T07:52:15;5.87;;;2.87;;
2055;SDS011;1033;52.560;13.374;2023-08-07T07:54:45;3.03;;;2.03;;
2055;SDS011;1033;52.560;13.374;2023-08-07T07:57:14;3.67;;;2.53;;
2055;SDS011;1033;52.560;13.374;2023-08-07T07:59:44;4.10;;;2.40;;
2055;SDS011;1033;52.560;13.374;2023-08-07T08:02:17;3.50;;;2.63;;
2055;SDS011;1033;52.560;13.374;2023-08-07T08:04:47;5.57;;;2.60;;
2055;SDS011;1033;52.560;13.374;2023-08-07T08:07:17;6.33;;;2.73;;
2055;SDS011;1033;52.560;13.374;2023-08-07T08:09:46;2.33;;;1.90;;
2055;SDS011;1033;52.560;13.374;2023-08-07T08:12:16;3.40;;;2.57;;
2055;SDS011;1033;52.560;13.374;2023-08-07T08:14:45;6.37;;;1.90;;
2055;SDS011;1033;52.560;13.374;2023-08-07T08:17:24;2.83;;;1.97;;
2055;SDS011;1033;52.560;13.374;2023-08-07T08:19:54;3.10;;;2.07;;
2055;SDS011;1033;52.560;13.374;2023-08-07T08:22:42;2.83;;;2.53;;
2055;SDS011;1033;52.560;13.374;2023-08-07T08:25:11;7.30;;;3.60;;
2055;SDS011;1033;52.560;13.374;2023-08-07T08:27:40;8.20;;;3.43;;
2055;SDS011;1033;52.560;13.374;2023-08-07T08:30:09;3.30;;;2.40;;
2055;SDS011;1033;52.560;13.374;2023-08-07T08:32:40;3.40;;;3.10;;
2055;SDS011;1033;52.560;13.374;2023-08-07T08:35:11;7.87;;;3.80;;
2055;SDS011;1033;52.560;13.374;2023-08-07T08:37:39;6.33;;;3.93;;
2055;SDS011;1033;52.560;13.374;2023-08-07T08:40:09;6.87;;;3.00;;
2055;SDS011;1033;52.560;13.374;2023-08-07T08:42:45;6.00;;;3.57;;
2055;SDS011;1033;52.560;13.374;2023-08-07T08:45:14;4.20;;;3.10;;
2055;SDS011;1033;52.560;13.374;2023-08-07T08:47:45;8.23;;;3.40;;
2055;SDS011;1033;52.560;13.374;2023-08-07T08:50:19;6.60;;;3.50;;
2055;SDS011;1033;52.560;13.374;2023-08-07T08:52:49;4.53;;;2.20;;
2055;SDS011;1033;52.560;13.374;2023-08-07T08:55:21;4.03;;;3.20;;
2055;SDS011;1033;52.560;13.374;2023-08-07T08:57:55;3.50;;;2.57;;
2055;SDS011;1033;52.560;13.374;2023-08-07T09:00:28;2.97;;;2.53;;
2055;SDS011;1033;52.560;13.374;2023-08-07T09:03:00;4.80;;;2.53;;
2055;SDS011;1033;52.560;13.374;2023-08-07T09:05:30;6.13;;;4.20;;
2055;SDS011;1033;52.560;13.374;2023-08-07T09:08:00;4.47;;;3.40;;
2055;SDS011;1033;52.560;13.374;2023-08-07T09:10:30;5.43;;;3.07;;
2055;SDS011;1033;52.560;13.374;2023-08-07T09:13:01;10.10;;;3.10;;
2055;SDS011;1033;52.560;13.374;2023-08-07T09:15:32;2.50;;;2.30;;
2055;SDS011;1033;52.560;13.374;2023-08-07T09:18:05;6.10;;;2.47;;
2055;SDS011;1033;52.560;13.374;2023-08-07T09:20:37;5.77;;;2.27;;
2055;SDS011;1033;52.560;13.374;2023-08-07T09:23:07;4.90;;;3.00;;
2055;SDS011;1033;52.560;13.374;2023-08-07T09:25:36;3.73;;;2.40;;
2055;SDS011;1033;52.560;13.374;2023-08-07T09:28:05;5.27;;;3.03;;
2055;SDS011;1033;52.560;13.374;2023-08-07T09:30:36;5.63;;;2.37;;
2055;SDS011;1033;52.560;13.374;2023-08-07T09:33:10;9.80;;;3.17;;
2055;SDS011;1033;52.560;13.374;2023-08-07T09:35:39;3.37;;;2.47;;
2055;SDS011;1033;52.560;13.374;2023-08-07T09:38:08;3.90;;;3.00;;
2055;SDS011;1033;52.560;13.374;2023-08-07T09:48:07;3.47;;;2.10;;
2055;SDS011;1033;52.560;13.374;2023-08-07T09:50:38;2.80;;;2.47;;
2055;SDS011;1033;52.560;13.374;2023-08-07T09:53:08;5.70;;;2.50;;
2055;SDS011;1033;52.560;13.374;2023-08-07T09:55:37;6.30;;;2.73;;
2055;SDS011;1033;52.560;13.374;2023-08-07T09:58:08;4.53;;;2.50;;
2055;SDS011;1033;52.560;13.374;2023-08-07T10:00:40;6.03;;;3.00;;
2055;SDS011;1033;52.560;13.374;2023-08-07T10:03:11;4.83;;;2.20;;
2055;SDS011;1033;52.560;13.374;2023-08-07T10:05:41;4.87;;;2.23;;
2055;SDS011;1033;52.560;13.374;2023-08-07T10:08:11;4.70;;;2.60;;
2055;SDS011;1033;52.560;13.374;2023-08-07T10:10:40;4.07;;;2.33;;
2055;SDS011;1033;52.560;13.374;2023-08-07T10:13:11;4.17;;;2.10;;
2055;SDS011;1033;52.560;13.374;2023-08-07T10:15:45;7.37;;;2.37;;
2055;SDS011;1033;52.560;13.374;2023-08-07T10:18:16;6.27;;;2.17;;
2055;SDS011;1033;52.560;13.374;2023-08-07T10:20:48;2.97;;;2.03;;
2055;SDS011;1033;52.560;13.374;2023-08-07T10:23:18;6.67;;;3.00;;
2055;SDS011;1033;52.560;13.374;2023-08-07T10:25:48;3.20;;;2.43;;
2055;SDS011;1033;52.560;13.374;2023-08-07T10:28:19;3.47;;;2.37;;
2055;SDS011;1033;52.560;13.374;2023-08-07T10:30:55;4.33;;;2.60;;
2055;SDS011;1033;52.560;13.374;2023-08-07T10:33:27;2.63;;;1.77;;
2055;SDS011;1033;52.560;13.374;2023-08-07T10:35:57;4.47;;;1.60;;
2055;SDS011;1033;52.560;13.374;2023-08-07T10:38:27;8.80;;;3.10;;
2055;SDS011;1033;52.560;13.374;2023-08-07T10:40:59;3.30;;;1.87;;
2055;SDS011;1033;52.560;13.374;2023-08-07T10:43:30;4.70;;;2.20;;
2055;SDS011;1033;52.560;13.374;2023-08-07T10:46:04;5.80;;;2.40;;
2055;SDS011;1033;52.560;13.374;2023-08-07T10:48:42;6.73;;;2.30;;
2055;SDS011;1033;52.560;13.374;2023-08-07T10:51:13;4.00;;;2.17;;
2055;SDS011;1033;52.560;13.374;2023-08-07T10:53:43;2.60;;;1.77;;
2055;SDS011;1033;52.560;13.374;2023-08-07T10:56:15;6.00;;;2.60;;
2055;SDS011;1033;52.560;13.374;2023-08-07T10:58:47;7.80;;;2.23;;
2055;SDS011;1033;52.560;13.374;2023-08-07T11:01:22;6.80;;;1.80;;
2055;SDS011;1033;52.560;13.374;2023-08-07T11:04:06;3.30;;;1.87;;
2055;SDS011;1033;52.560;13.374;2023-08-07T11:06:37;3.27;;;2.40;;
2055;SDS011;1033;52.560;13.374;2023-08-07T11:09:08;2.93;;;2.20;;
2055;SDS011;1033;52.560;13.374;2023-08-07T11:11:38;5.00;;;1.97;;
2055;SDS011;1033;52.560;13.374;2023-08-07T11:14:09;2.70;;;1.93;;
2055;SDS011;1033;52.560;13.374;2023-08-07T11:16:39;3.67;;;1.93;;
2055;SDS011;1033;52.560;13.374;2023-08-07T11:19:11;4.27;;;2.00;;
2055;SDS011;1033;52.560;13.374;2023-08-07T11:21:41;2.40;;;1.90;;
2055;SDS011;1033;52.560;13.374;2023-08-07T11:24:11;2.43;;;2.17;;
2055;SDS011;1033;52.560;13.374;2023-08-07T11:26:42;3.30;;;2.50;;
2055;SDS011;1033;52.560;13.374;2023-08-07T11:29:15;3.23;;;2.43;;
2055;SDS011;1033;52.560;13.374;2023-08-07T11:31:45;5.63;;;2.60;;
2055;SDS011;1033;52.560;13.374;2023-08-07T11:34:16;3.90;;;2.50;;
2055;SDS011;1033;52.560;13.374;2023-08-07T11:36:46;3.17;;;2.43;;
2055;SDS011;1033;52.560;13.374;2023-08-07T11:39:19;5.87;;;3.17;;
2055;SDS011;1033;52.560;13.374;2023-08-07T11:41:50;3.13;;;2.47;;
2055;SDS011;1033;52.560;13.374;2023-08-07T11:44:19;3.40;;;2.40;;
2055;SDS011;1033;52.560;13.374;2023-08-07T11:46:50;3.93;;;2.83;;
2055;SDS011;1033;52.560;13.374;2023-08-07T11:52:16;5.13;;;2.37;;
2055;SDS011;1033;52.560;13.374;2023-08-07T11:54:46;7.03;;;3.40;;
2055;SDS011;1033;52.560;13.374;2023-08-07T11:57:17;4.63;;;2.37;;
2055;SDS011;1033;52.560;13.374;2023-08-07T11:59:49;4.20;;;2.17;;
2055;SDS011;1033;52.560;13.374;2023-08-07T12:02:22;3.00;;;2.10;;
2055;SDS011;1033;52.560;13.374;2023-08-07T12:04:58;5.80;;;2.83;;
2055;SDS011;1033;52.560;13.374;2023-08-07T12:07:27;6.97;;;2.67;;
2055;SDS011;1033;52.560;13.374;2023-08-07T12:10:01;3.93;;;2.37;;
2055;SDS011;1033;52.560;13.374;2023-08-07T12:12:32;6.43;;;2.40;;
2055;SDS011;1033;52.560;13.374;2023-08-07T12:15:02;4.73;;;2.90;;
2055;SDS011;1033;52.560;13.374;2023-08-07T12:21:23;5.57;;;2.37;;
2055;SDS011;1033;52.560;13.374;2023-08-07T12:23:54;6.27;;;2.17;;
2055;SDS011;1033;52.560;13.374;2023-08-07T12:26:24;3.03;;;2.40;;
2055;SDS011;1033;52.560;13.374;2023-08-07T12:28:53;5.77;;;2.70;;
2055;SDS011;1033;52.560;13.374;2023-08-07T12:31:22;4.47;;;2.93;;
2055;SDS011;1033;52.560;13.374;2023-08-07T12:33:52;8.37;;;2.90;;
2055;SDS011;1033;52.560;13.374;2023-08-07T12:36:22;6.53;;;3.23;;
2055;SDS011;1033;52.560;13.374;2023-08-07T12:38:52;5.47;;;2.43;;
2055;SDS011;1033;52.560;13.374;2023-08-07T12:41:21;4.10;;;2.03;;
2055;SDS011;1033;52.560;13.374;2023-08-07T12:43:53;12.40;;;3.00;;
2055;SDS011;1033;52.560;13.374;2023-08-07T12:46:22;13.70;;;3.10;;
2055;SDS011;1033;52.560;13.374;2023-08-07T12:48:57;4.50;;;1.80;;
2055;SDS011;1033;52.560;13.374;2023-08-07T12:51:28;2.97;;;2.00;;
2055;SDS011;1033;52.560;13.374;2023-08-07T12:53:57;3.87;;;2.27;;
2055;SDS011;1033;52.560;13.374;2023-08-07T12:56:27;8.23;;;3.03;;
2055;SDS011;1033;52.560;13.374;2023-08-07T12:58:56;5.37;;;3.40;;
2055;SDS011;1033;52.560;13.374;2023-08-07T13:01:25;6.70;;;2.47;;
2055;SDS011;1033;52.560;13.374;2023-08-07T13:03:54;6.97;;;2.57;;
2055;SDS011;1033;52.560;13.374;2023-08-07T13:06:23;4.47;;;1.77;;
2055;SDS011;1033;52.560;13.374;2023-08-07T13:08:54;9.83;;;3.87;;
2055;SDS011;1033;52.560;13.374;2023-08-07T13:11:24;8.33;;;2.53;;
2055;SDS011;1033;52.560;13.374;2023-08-07T13:13:53;4.87;;;3.37;;
2055;SDS011;1033;52.560;13.374;2023-08-07T13:16:23;7.60;;;2.00;;
2055;SDS011;1033;52.560;13.374;2023-08-07T13:18:52;7.80;;;3.20;;
2055;SDS011;1033;52.560;13.374;2023-08-07T13:21:21;8.57;;;2.73;;
2055;SDS011;1033;52.560;13.374;2023-08-07T13:23:51;4.80;;;2.37;;
2055;SDS011;1033;52.560;13.374;2023-08-07T13:26:22;8.80;;;3.03;;
2055;SDS011;1033;52.560;13.374;2023-08-07T13:28:51;5.50;;;3.13;;
2055;SDS011;1033;52.560;13.374;2023-08-07T13:31:20;9.03;;;3.23;;
2055;SDS011;1033;52.560;13.374;2023-08-07T13:33:50;6.20;;;2.70;;
2055;SDS011;1033;52.560;13.374;2023-08-07T13:36:19;7.30;;;3.27;;
2055;SDS011;1033;52.560;13.374;2023-08-07T13:38:48;7.50;;;3.03;;
2055;SDS011;1033;52.560;13.374;2023-08-07T13:41:18;7.87;;;3.40;;
2055;SDS011;1033;52.560;13.374;2023-08-07T13:43:49;4.03;;;2.40;;
2055;SDS011;1033;52.560;13.374;2023-08-07T13:46:18;8.77;;;3.97;;
2055;SDS011;1033;52.560;13.374;2023-08-07T13:48:51;5.83;;;2.33;;
2055;SDS011;1033;52.560;13.374;2023-08-07T13:51:20;11.40;;;2.83;;
2055;SDS011;1033;52.560;13.374;2023-08-07T13:53:50;4.63;;;3.07;;
2055;SDS011;1033;52.560;13.374;2023-08-07T13:56:19;4.50;;;2.30;;
2055;SDS011;1033;52.560;13.374;2023-08-07T13:58:50;7.27;;;2.97;;
2055;SDS011;1033;52.560;13.374;2023-08-07T14:01:21;7.33;;;3.63;;
2055;SDS011;1033;52.560;13.374;2023-08-07T14:03:50;6.47;;;3.00;;
2055;SDS011;1033;52.560;13.374;2023-08-07T14:06:20;7.20;;;3.47;;
2055;SDS011;1033;52.560;13.374;2023-08-07T14:08:50;6.20;;;3.17;;
2055;SDS011;1033;52.560;13.374;2023-08-07T14:11:19;10.10;;;5.60;;
2055;SDS011;1033;52.560;13.374;2023-08-07T14:13:52;7.20;;;3.50;;
2055;SDS011;1033;52.560;13.374;2023-08-07T14:16:22;5.03;;;3.47;;
2055;SDS011;1033;52.560;13.374;2023-08-07T14:18:51;5.40;;;2.37;;
2055;SDS011;1033;52.560;13.374;2023-08-07T14:21:21;6.50;;;3.13;;
2055;SDS011;1033;52.560;13.374;2023-08-07T14:23:50;5.70;;;2.33;;
2055;SDS011;1033;52.560;13.374;2023-08-07T14:26:20;10.63;;;2.70;;
2055;SDS011;1033;52.560;13.374;2023-08-07T14:28:49;6.73;;;2.57;;
2055;SDS011;1033;52.560;13.374;2023-08-07T14:31:19;12.63;;;3.40;;
2055;SDS011;1033;52.560;13.374;2023-08-07T14:33:49;6.57;;;2.37;;
2055;SDS011;1033;52.560;13.374;2023-08-07T14:36:20;14.30;;;2.70;;
2055;SDS011;1033;52.560;13.374;2023-08-07T14:38:50;6.50;;;2.80;;
2055;SDS011;1033;52.560;13.374;2023-08-07T14:41:19;10.73;;;2.80;;
2055;SDS011;1033;52.560;13.374;2023-08-07T14:43:48;5.90;;;3.40;;
2055;SDS011;1033;52.560;13.374;2023-08-07T14:46:17;5.43;;;2.27;;
2055;SDS011;1033;52.560;13.374;2023-08-07T14:48:50;6.00;;;3.53;;
2055;SDS011;1033;52.560;13.374;2023-08-07T14:51:19;10.10;;;3.07;;
2055;SDS011;1033;52.560;13.374;2023-08-07T14:53:51;7.63;;;3.10;;
2055;SDS011;1033;52.560;13.374;2023-08-07T14:56:21;5.80;;;1.90;;
2055;SDS011;1033;52.560;13.374;2023-08-07T14:58:50;7.63;;;2.90;;
2055;SDS011;1033;52.560;13.374;2023-08-07T15:01:21;6.60;;;3.60;;
2055;SDS011;1033;52.560;13.374;2023-08-07T15:03:50;8.50;;;2.40;;
2055;SDS011;1033;52.560;13.374;2023-08-07T15:06:21;10.17;;;3.33;;
2055;SDS011;1033;52.560;13.374;2023-08-07T15:08:51;12.07;;;2.90;;
2055;SDS011;1033;52.560;13.374;2023-08-07T15:11:21;5.87;;;2.97;;
2055;SDS011;1033;52.560;13.374;2023-08-07T15:13:50;4.43;;;1.93;;
2055;SDS011;1033;52.560;13.374;2023-08-07T15:16:19;6.03;;;2.57;;
2055;SDS011;1033;52.560;13.374;2023-08-07T15:18:51;5.87;;;2.43;;
2055;SDS011;1033;52.560;13.374;2023-08-07T15:25:46;3.90;;;2.70;;
2055;SDS011;1033;52.560;13.374;2023-08-07T15:28:16;4.10;;;2.17;;
2055;SDS011;1033;52.560;13.374;2023-08-07T15:30:46;5.53;;;2.53;;
2055;SDS011;1033;52.560;13.374;2023-08-07T15:33:18;3.60;;;2.77;;
2055;SDS011;1033;52.560;13.374;2023-08-07T15:35:50;8.33;;;2.07;;
2055;SDS011;1033;52.560;13.374;2023-08-07T15:38:23;4.37;;;2.23;;
2055;SDS011;1033;52.560;13.374;2023-08-07T15:40:54;5.80;;;2.30;;
2055;SDS011;1033;52.560;13.374;2023-08-07T15:43:24;8.67;;;2.50;;
2055;SDS011;1033;52.560;13.374;2023-08-07T15:45:53;3.83;;;2.37;;
2055;SDS011;1033;52.560;13.374;2023-08-07T15:48:23;5.70;;;3.03;;
2055;SDS011;1033;52.560;13.374;2023-08-07T15:50:53;5.63;;;2.53;;
2055;SDS011;1033;52.560;13.374;2023-08-07T15:53:24;7.17;;;2.60;;
2055;SDS011;1033;52.560;13.374;2023-08-07T15:55:54;7.73;;;2.63;;
2055;SDS011;1033;52.560;13.374;2023-08-07T15:58:24;8.67;;;3.03;;